TAF KGPT
KGPT 090520Z 0906/1006 07003KT P6SM SKC FM090800 08005KT 3SM BR BKN025 FM090900 09005KT P6SM BKN025 FM091700 13007KT P6SM OVC008 FM092300 14007KT 2SM BR VCSH OVC003 FM100500 19007KT 5SM BR BKN008=
METAR KGPT
WC KGPT
WS KGPT
WV KGPT